Time;durP1;ratioP1;P1;durP2;ratioP2;P2;SDS_P1;SDS_P2;PMS_P1;PMS_P2;Temp;Humidity;BMP_temperature;BMP_pressure;BME280_temperature;BME280_humidity;BME280_pressure;Samples;Min_cycle;Max_cycle;Signal;HPM_P1;HPM_P2
2024/04/13 00:01:00;;;;;;;;;;;;;;;10.74;100.00;99005.56;5442009;26;19988;-49
2024/04/13 00:03:26;;;;;;;;;;;;;;;10.73;100.00;99011.66;5437439;26;19970;-48
2024/04/13 00:05:51;;;;;;;;;;;;;;;10.84;100.00;99009.50;5442159;26;19965;-48
2024/04/13 00:08:17;;;;;;;;;;;;;;;10.92;99.75;99004.81;5445086;26;19989;-49
2024/04/13 00:10:42;;;;;;;;;;;;;;;10.68;100.00;99011.00;5445625;26;19935;-49
2024/04/13 00:13:09;;;;;;;;;;;;;;;10.61;100.00;99009.56;5447399;26;20281;-49
2024/04/13 00:15:34;;;;;;;;;;;;;;;10.70;100.00;99005.75;5445107;26;19967;-51
2024/04/13 00:17:59;;;;;;;;;;;;;;;10.59;100.00;99011.38;5443725;26;19943;-49
2024/04/13 00:20:25;;;;;;;;;;;;;;;10.72;100.00;99007.38;5433169;26;19940;-49
2024/04/13 00:22:50;;;;;;;;;;;;;;;10.55;100.00;99012.41;5445619;26;19959;-49
2024/04/13 00:25:15;;;;;;;;;;;;;;;10.44;100.00;99004.19;5434567;26;20374;-50
2024/04/13 00:27:41;;;;;;;;;;;;;;;10.46;100.00;99002.38;5441322;26;19940;-50
2024/04/13 00:30:07;;;;;;;;;;;;;;;10.60;100.00;98996.59;5444741;26;20377;-49
2024/04/13 00:32:32;;;;;;;;;;;;;;;10.65;100.00;98998.13;5444620;26;20223;-49
2024/04/13 00:34:57;;;;;;;;;;;;;;;10.46;99.93;99002.38;5441275;26;20276;-49
2024/04/13 00:37:22;;;;;;;;;;;;;;;10.05;100.00;98995.34;5439870;26;20355;-51
2024/04/13 00:39:48;;;;;;;;;;;;;;;10.15;100.00;98991.47;5441241;26;20003;-49
2024/04/13 00:42:14;;;;;;;;;;;;;;;9.95;100.00;98983.53;5449561;26;19982;-49
2024/04/13 00:44:42;;;;;;;;;;;;;;;9.91;100.00;98987.19;5444547;26;20458;-49
2024/04/13 00:47:09;;;;;;;;;;;;;;;10.10;100.00;98980.41;5443529;26;19984;-49
2024/04/13 00:49:36;;;;;;;;;;;;;;;10.01;100.00;98974.69;5449228;26;19943;-49
2024/04/13 00:52:06;;;;;;;;;;;;;;;10.14;100.00;98979.38;5441022;26;19966;-49
2024/04/13 00:54:31;;;;;;;;;;;;;;;9.82;100.00;98982.31;5434293;26;20032;-52
2024/04/13 00:56:58;;;;;;;;;;;;;;;9.81;100.00;98979.78;5440286;26;20405;-49
2024/04/13 00:59:24;;;;;;;;;;;;;;;9.85;100.00;98982.22;5441141;26;20272;-50
2024/04/13 01:01:49;;;;;;;;;;;;;;;9.85;100.00;98979.59;5440884;26;19991;-48
2024/04/13 01:04:15;;;;;;;;;;;;;;;9.91;100.00;98970.72;5443850;26;19976;-49
2024/04/13 01:06:42;;;;;;;;;;;;;;;9.90;100.00;98969.91;5448268;26;19960;-48
2024/04/13 01:09:07;;;;;;;;;;;;;;;9.90;100.00;98974.22;5448178;26;19933;-48
2024/04/13 01:11:34;;;;;;;;;;;;;;;9.84;100.00;98974.47;5448102;26;20078;-50
2024/04/13 01:14:00;;;;;;;;;;;;;;;9.99;100.00;98964.31;5445938;26;19991;-48
2024/04/13 01:16:28;;;;;;;;;;;;;;;10.05;100.00;98969.31;5445590;26;20205;-49
2024/04/13 01:18:54;;;;;;;;;;;;;;;10.00;100.00;98966.03;5451188;26;20030;-48
2024/04/13 01:21:19;;;;;;;;;;;;;;;10.04;100.00;98972.84;5434322;26;19976;-50
2024/04/13 01:23:44;;;;;;;;;;;;;;;9.89;100.00;98973.38;5448159;26;19967;-49
2024/04/13 01:26:10;;;;;;;;;;;;;;;9.80;100.00;98978.94;5447742;26;20046;-50
2024/04/13 01:28:36;;;;;;;;;;;;;;;9.69;100.00;98975.88;5448830;26;19988;-48
2024/04/13 01:31:02;;;;;;;;;;;;;;;9.77;100.00;98981.66;5446101;26;19968;-49
2024/04/13 01:33:28;;;;;;;;;;;;;;;9.83;100.00;98984.00;5447419;26;19940;-49
2024/04/13 01:36:00;;;;;;;;;;;;;;;9.65;100.00;98989.91;5449927;26;19970;-49
2024/04/13 01:38:26;;;;;;;;;;;;;;;9.84;100.00;98985.72;5443261;26;19952;-48
2024/04/13 01:40:51;;;;;;;;;;;;;;;9.70;100.00;98980.19;5446074;26;19989;-50
2024/04/13 01:43:16;;;;;;;;;;;;;;;9.64;100.00;98985.63;5442036;26;19962;-49
2024/04/13 01:45:41;;;;;;;;;;;;;;;9.75;100.00;98993.84;5448036;26;20281;-49
2024/04/13 01:48:07;;;;;;;;;;;;;;;9.88;100.00;98992.47;5442829;26;19997;-49
2024/04/13 01:50:33;;;;;;;;;;;;;;;9.61;100.00;98984.88;5446306;26;20279;-51
2024/04/13 01:52:58;;;;;;;;;;;;;;;9.75;100.00;98987.81;5448970;26;19929;-49
2024/04/13 01:55:23;;;;;;;;;;;;;;;9.61;100.00;98990.91;5440640;26;19998;-49
2024/04/13 01:57:48;;;;;;;;;;;;;;;9.72;100.00;98985.31;5445544;26;19928;-49
2024/04/13 02:00:17;;;;;;;;;;;;;;;9.47;100.00;98985.38;5444660;26;20009;-50
2024/04/13 02:02:42;;;;;;;;;;;;;;;9.60;100.00;98984.00;5443956;26;19985;-50
2024/04/13 02:05:08;;;;;;;;;;;;;;;9.50;100.00;98981.81;5444317;26;19929;-50
2024/04/13 02:07:33;;;;;;;;;;;;;;;9.62;100.00;98979.59;5443722;26;19976;-50
2024/04/13 02:09:59;;;;;;;;;;;;;;;9.53;100.00;98979.94;5447056;26;20270;-51
2024/04/13 02:12:24;;;;;;;;;;;;;;;9.41;100.00;98975.19;5437369;26;20017;-50
2024/04/13 02:14:49;;;;;;;;;;;;;;;9.54;100.00;98976.44;5443612;26;19936;-50
2024/04/13 02:17:14;;;;;;;;;;;;;;;9.57;100.00;98986.75;5452204;26;20088;-51
2024/04/13 02:19:42;;;;;;;;;;;;;;;9.42;100.00;98987.28;5448706;26;19928;-51
2024/04/13 02:22:07;;;;;;;;;;;;;;;9.41;100.00;98990.78;5440226;26;20426;-50
2024/04/13 02:24:33;;;;;;;;;;;;;;;9.62;100.00;98994.38;5448600;26;19967;-50
2024/04/13 02:26:58;;;;;;;;;;;;;;;9.47;100.00;98993.16;5451863;26;19967;-50
2024/04/13 02:29:25;;;;;;;;;;;;;;;9.46;100.00;98988.88;5437402;26;19936;-50
2024/04/13 02:31:50;;;;;;;;;;;;;;;9.22;100.00;98994.91;5441383;26;20049;-50
2024/04/13 02:34:16;;;;;;;;;;;;;;;9.36;100.00;98992.69;5443135;26;20018;-51
2024/04/13 02:36:41;;;;;;;;;;;;;;;9.53;100.00;98995.53;5446680;26;20038;-50
2024/04/13 02:39:08;;;;;;;;;;;;;;;9.44;100.00;98990.69;5441058;26;19964;-49
2024/04/13 02:41:33;;;;;;;;;;;;;;;9.25;100.00;98992.22;5442437;26;19970;-50
2024/04/13 02:43:58;;;;;;;;;;;;;;;9.55;100.00;98998.91;5447690;26;20285;-51
2024/04/13 02:46:23;;;;;;;;;;;;;;;9.53;100.00;98990.34;5444827;26;20260;-50
2024/04/13 02:48:49;;;;;;;;;;;;;;;9.21;100.00;98988.03;5446481;26;19965;-50
2024/04/13 02:51:15;;;;;;;;;;;;;;;9.30;100.00;98981.66;5443814;26;20275;-50
2024/04/13 02:53:40;;;;;;;;;;;;;;;9.16;100.00;98979.53;5447967;26;19994;-50
2024/04/13 02:56:07;;;;;;;;;;;;;;;9.22;100.00;98984.53;5442032;26;19963;-51
2024/04/13 02:58:32;;;;;;;;;;;;;;;9.11;100.00;98986.66;5447709;26;20004;-52
2024/04/13 03:00:59;;;;;;;;;;;;;;;9.21;100.00;98984.59;5451651;26;19967;-50
2024/04/13 03:03:25;;;;;;;;;;;;;;;9.30;100.00;98982.53;5440718;26;20381;-51
2024/04/13 03:06:11;;;;;;;;;;;;;;;9.17;100.00;98976.06;5447427;26;19969;-50
2024/04/13 03:08:38;;;;;;;;;;;;;;;9.03;100.00;98978.28;5467244;26;19968;-50
2024/04/13 03:11:03;;;;;;;;;;;;;;;8.94;100.00;98977.78;5443651;26;19973;-50
2024/04/13 03:13:29;;;;;;;;;;;;;;;8.92;100.00;98980.41;5447543;26;19943;-50
2024/04/13 03:16:04;;;;;;;;;;;;;;;8.96;100.00;98979.38;5442299;26;20330;-49
2024/04/13 03:18:30;;;;;;;;;;;;;;;8.69;100.00;98985.50;5447498;26;20219;-50
2024/04/13 03:20:56;;;;;;;;;;;;;;;8.87;100.00;98986.63;5446473;26;19966;-50
2024/04/13 03:23:21;;;;;;;;;;;;;;;8.71;100.00;98985.47;5438296;26;19988;-51
2024/04/13 03:25:46;;;;;;;;;;;;;;;8.86;100.00;98984.94;5447105;26;20106;-50
2024/04/13 03:28:11;;;;;;;;;;;;;;;8.67;100.00;98982.13;5445009;26;19986;-51
2024/04/13 03:30:38;;;;;;;;;;;;;;;8.58;100.00;98982.44;5434685;26;20053;-51
2024/04/13 03:33:04;;;;;;;;;;;;;;;8.74;100.00;98985.38;5442835;26;19929;-50
2024/04/13 03:35:34;;;;;;;;;;;;;;;8.86;100.00;98996.19;5445697;26;20004;-50
2024/04/13 03:38:00;;;;;;;;;;;;;;;8.84;100.00;98990.22;5445668;26;19972;-50
2024/04/13 03:40:25;;;;;;;;;;;;;;;8.95;100.00;98980.28;5446773;26;19928;-50
2024/04/13 03:42:50;;;;;;;;;;;;;;;8.61;100.00;98984.91;5445721;26;19944;-50
2024/04/13 03:45:16;;;;;;;;;;;;;;;8.74;100.00;98983.63;5442314;26;19981;-50
2024/04/13 03:47:43;;;;;;;;;;;;;;;8.87;100.00;98987.50;5444276;26;19960;-50
2024/04/13 03:50:09;;;;;;;;;;;;;;;8.59;100.00;98986.72;5444851;26;19964;-50
2024/04/13 03:52:34;;;;;;;;;;;;;;;8.88;100.00;98994.38;5448553;26;19936;-51
2024/04/13 03:55:00;;;;;;;;;;;;;;;8.86;100.00;98992.72;5447140;26;20260;-50
2024/04/13 03:57:25;;;;;;;;;;;;;;;8.74;100.00;98996.59;5445433;26;20040;-50
2024/04/13 03:59:50;;;;;;;;;;;;;;;8.67;100.00;98992.50;5448304;26;20047;-50
2024/04/13 04:02:17;;;;;;;;;;;;;;;8.45;100.00;98986.31;5450364;26;19972;-50
2024/04/13 04:04:42;;;;;;;;;;;;;;;8.67;100.00;98979.53;5444366;26;19973;-50
2024/04/13 04:07:08;;;;;;;;;;;;;;;8.71;100.00;98985.47;5448149;26;19963;-50
2024/04/13 04:09:33;;;;;;;;;;;;;;;8.74;100.00;98991.41;5449379;26;19967;-51
2024/04/13 04:11:58;;;;;;;;;;;;;;;8.73;100.00;98992.31;5450101;26;20064;-50
2024/04/13 04:14:23;;;;;;;;;;;;;;;8.54;100.00;98993.78;5444440;26;20300;-49
2024/04/13 04:16:49;;;;;;;;;;;;;;;8.42;100.00;98989.00;5450574;26;19994;-50
2024/04/13 04:19:14;;;;;;;;;;;;;;;8.65;100.00;98986.53;5446985;26;19973;-49
2024/04/13 04:21:39;;;;;;;;;;;;;;;8.56;100.00;98985.97;5440437;26;20358;-50
2024/04/13 04:24:04;;;;;;;;;;;;;;;8.55;100.00;98977.31;5438180;26;20382;-50
2024/04/13 04:26:31;;;;;;;;;;;;;;;8.49;100.00;98979.28;5439608;26;19998;-50
2024/04/13 04:28:56;;;;;;;;;;;;;;;8.44;100.00;98983.75;5438954;26;19936;-51
2024/04/13 04:31:22;;;;;;;;;;;;;;;8.54;100.00;98980.00;5437278;26;19978;-52
2024/04/13 04:33:52;;;;;;;;;;;;;;;8.46;100.00;98984.56;5440640;26;20008;-50
2024/04/13 04:36:18;;;;;;;;;;;;;;;8.41;100.00;98976.09;5443823;26;20244;-49
2024/04/13 04:38:43;;;;;;;;;;;;;;;8.45;100.00;98975.94;5446699;26;20007;-49
2024/04/13 04:41:08;;;;;;;;;;;;;;;8.41;100.00;98982.13;5443752;26;20327;-49
2024/04/13 04:43:33;;;;;;;;;;;;;;;8.46;100.00;98974.19;5443517;26;20313;-50
2024/04/13 04:45:59;;;;;;;;;;;;;;;8.37;100.00;98975.34;5448804;26;19957;-49
2024/04/13 04:48:24;;;;;;;;;;;;;;;8.44;100.00;98983.75;5446053;26;20041;-50
2024/04/13 04:50:56;;;;;;;;;;;;;;;8.52;100.00;98973.97;5444397;26;19928;-50
2024/04/13 04:53:21;;;;;;;;;;;;;;;8.62;100.00;98970.22;5436178;26;19977;-52
2024/04/13 04:55:46;;;;;;;;;;;;;;;8.73;100.00;98989.72;5448913;26;20054;-50
2024/04/13 04:58:12;;;;;;;;;;;;;;;8.70;100.00;98973.41;5443653;26;20335;-50
2024/04/13 05:00:37;;;;;;;;;;;;;;;8.69;100.00;98977.72;5440257;26;19969;-51
2024/04/13 05:03:02;;;;;;;;;;;;;;;8.91;100.00;98978.72;5449469;26;19971;-51
2024/04/13 05:05:28;;;;;;;;;;;;;;;8.92;100.00;98988.19;5447577;26;19929;-51
2024/04/13 05:07:53;;;;;;;;;;;;;;;8.89;100.00;98985.69;5449078;26;19974;-50
2024/04/13 05:10:19;;;;;;;;;;;;;;;9.08;100.00;98981.56;5449657;26;19985;-49
2024/04/13 05:12:44;;;;;;;;;;;;;;;8.99;100.00;98981.91;5442831;26;19961;-50
2024/04/13 05:15:09;;;;;;;;;;;;;;;9.09;100.00;98992.81;5447619;26;19964;-50
2024/04/13 05:17:34;;;;;;;;;;;;;;;9.00;100.00;99004.34;5434107;26;19980;-48
2024/04/13 05:20:00;;;;;;;;;;;;;;;9.23;100.00;98994.00;5440595;26;19966;-49
2024/04/13 05:22:25;;;;;;;;;;;;;;;9.19;100.00;99000.22;5433962;26;19929;-49
2024/04/13 05:24:50;;;;;;;;;;;;;;;9.28;100.00;98999.91;5444608;26;20288;-49
2024/04/13 05:27:16;;;;;;;;;;;;;;;9.14;100.00;99007.31;5442489;26;19993;-48
2024/04/13 05:29:41;;;;;;;;;;;;;;;9.10;100.00;99005.75;5442957;26;19940;-48
2024/04/13 05:32:07;;;;;;;;;;;;;;;9.27;100.00;98998.22;5444504;26;19935;-49
2024/04/13 05:34:32;;;;;;;;;;;;;;;9.31;100.00;99004.16;5441066;26;19975;-48
2024/04/13 05:36:57;;;;;;;;;;;;;;;9.43;100.00;99004.53;5446611;26;19975;-48
2024/04/13 05:39:22;;;;;;;;;;;;;;;9.43;100.00;98998.53;5444450;26;19937;-49
2024/04/13 05:41:48;;;;;;;;;;;;;;;9.47;100.00;99000.94;5440831;26;19929;-52
2024/04/13 05:44:13;;;;;;;;;;;;;;;9.83;100.00;98994.41;5441856;26;20044;-50
2024/04/13 05:46:38;;;;;;;;;;;;;;;10.04;100.00;99000.59;5441290;26;20048;-49
2024/04/13 05:49:04;;;;;;;;;;;;;;;10.45;100.00;99000.69;5442942;26;19987;-50
2024/04/13 05:51:30;;;;;;;;;;;;;;;10.82;100.00;99000.03;5443166;26;19936;-49
2024/04/13 05:53:55;;;;;;;;;;;;;;;10.86;100.00;98992.03;5446490;26;19936;-49
2024/04/13 05:56:20;;;;;;;;;;;;;;;10.95;100.00;99002.06;5443262;26;20009;-51
2024/04/13 05:58:45;;;;;;;;;;;;;;;11.02;99.16;98993.94;5441217;26;19969;-49
2024/04/13 06:01:11;;;;;;;;;;;;;;;11.21;98.47;98999.22;5435402;26;19985;-50
2024/04/13 06:03:38;;;;;;;;;;;;;;;11.32;96.87;99004.81;5446887;26;19982;-50
2024/04/13 06:06:03;;;;;;;;;;;;;;;11.83;95.14;99007.78;5449147;26;19968;-50
2024/04/13 06:08:29;;;;;;;;;;;;;;;12.15;92.69;99001.91;5442623;26;19959;-51
2024/04/13 06:10:54;;;;;;;;;;;;;;;12.56;89.00;99009.47;5438737;26;19996;-50
2024/04/13 06:13:19;;;;;;;;;;;;;;;13.19;88.42;99010.72;5432471;26;19986;-50
2024/04/13 06:15:44;;;;;;;;;;;;;;;13.33;87.58;99016.09;5442683;26;20412;-50
2024/04/13 06:18:09;;;;;;;;;;;;;;;13.79;84.61;99018.03;5435479;26;21269;-49
2024/04/13 06:20:36;;;;;;;;;;;;;;;13.87;82.97;99010.63;5442533;26;20389;-52
2024/04/13 06:23:02;;;;;;;;;;;;;;;13.84;81.55;99005.56;5439724;26;19971;-49
2024/04/13 06:25:27;;;;;;;;;;;;;;;13.57;83.35;99007.00;5446189;26;20326;-48
2024/04/13 06:27:52;;;;;;;;;;;;;;;14.19;82.29;99018.47;5444488;26;19962;-49
2024/04/13 06:30:18;;;;;;;;;;;;;;;15.72;75.91;99003.41;5435914;26;19971;-50
2024/04/13 06:32:43;;;;;;;;;;;;;;;16.90;70.17;99008.94;5443693;26;19966;-52
2024/04/13 06:35:09;;;;;;;;;;;;;;;18.23;63.96;99010.22;5442595;26;19971;-51
2024/04/13 06:37:34;;;;;;;;;;;;;;;18.18;62.61;99004.41;5447586;26;20001;-48
2024/04/13 06:40:01;;;;;;;;;;;;;;;18.37;61.65;99015.38;5439336;26;19978;-49
2024/04/13 06:42:26;;;;;;;;;;;;;;;18.91;60.46;99011.38;5435791;26;19936;-48
2024/04/13 06:44:51;;;;;;;;;;;;;;;18.95;59.91;99006.72;5438636;26;19974;-50
2024/04/13 06:47:17;;;;;;;;;;;;;;;18.50;60.97;99010.03;5433633;26;19935;-49
2024/04/13 06:49:42;;;;;;;;;;;;;;;18.12;61.80;99004.03;5448520;26;19935;-48
2024/04/13 06:52:07;;;;;;;;;;;;;;;18.62;62.11;99004.75;5438402;26;19989;-49
2024/04/13 06:54:33;;;;;;;;;;;;;;;18.41;62.90;99005.44;5433913;26;19969;-51
2024/04/13 06:56:58;;;;;;;;;;;;;;;18.44;63.63;99011.34;5434209;26;20464;-50
2024/04/13 06:59:23;;;;;;;;;;;;;;;17.97;65.02;99011.19;5416115;26;20114;-50
2024/04/13 07:01:49;;;;;;;;;;;;;;;17.65;64.38;99009.94;5421873;26;20223;-49
2024/04/13 07:04:14;;;;;;;;;;;;;;;17.66;65.17;99011.63;5438528;26;20256;-49
2024/04/13 07:06:41;;;;;;;;;;;;;;;18.39;64.59;99002.09;5420815;26;19986;-49
2024/04/13 07:09:06;;;;;;;;;;;;;;;18.84;62.78;99010.13;5429055;26;19935;-49
2024/04/13 07:11:31;;;;;;;;;;;;;;;18.71;63.74;99008.53;5440779;26;20066;-48
2024/04/13 07:13:57;;;;;;;;;;;;;;;19.06;63.07;99004.94;5449484;26;19928;-48
2024/04/13 07:16:22;;;;;;;;;;;;;;;19.11;60.99;99008.09;5443586;26;19965;-48
2024/04/13 07:18:48;;;;;;;;;;;;;;;19.54;60.95;99003.94;5448318;26;20008;-48
2024/04/13 07:21:13;;;;;;;;;;;;;;;19.00;61.36;98999.28;5445418;26;19998;-48
2024/04/13 07:23:38;;;;;;;;;;;;;;;20.02;60.72;99000.16;5450307;26;19945;-49
2024/04/13 07:26:07;;;;;;;;;;;;;;;20.71;58.32;98999.84;5447529;26;19928;-48
2024/04/13 07:28:34;;;;;;;;;;;;;;;21.02;58.01;98999.06;5449150;26;20242;-49
2024/04/13 07:30:59;;;;;;;;;;;;;;;20.80;57.79;99007.03;5445348;26;20331;-49
2024/04/13 07:33:25;;;;;;;;;;;;;;;21.13;57.29;99001.66;5448450;26;19937;-49
2024/04/13 07:35:50;;;;;;;;;;;;;;;21.69;56.64;99004.84;5442189;26;19973;-49
2024/04/13 07:38:15;;;;;;;;;;;;;;;21.66;56.27;99002.44;5448945;26;19972;-48
2024/04/13 07:40:40;;;;;;;;;;;;;;;24.60;52.24;99002.66;5444925;26;19937;-48
2024/04/13 07:43:06;;;;;;;;;;;;;;;27.13;45.55;99004.72;5447624;26;20367;-50
2024/04/13 07:45:31;;;;;;;;;;;;;;;28.45;43.43;99011.31;5449376;26;20236;-49
2024/04/13 07:47:56;;;;;;;;;;;;;;;28.27;42.40;99016.03;5447169;26;19993;-50
2024/04/13 07:50:22;;;;;;;;;;;;;;;28.83;41.10;99015.81;5446281;26;19985;-49
2024/04/13 07:52:47;;;;;;;;;;;;;;;27.24;43.09;99023.13;5443118;26;19936;-49
2024/04/13 07:55:13;;;;;;;;;;;;;;;28.69;41.31;99019.25;5445176;26;19928;-48
2024/04/13 07:57:38;;;;;;;;;;;;;;;28.67;40.76;99011.41;5444686;26;20052;-49
2024/04/13 08:00:04;;;;;;;;;;;;;;;29.47;40.23;99015.44;5444926;26;20403;-48
2024/04/13 08:02:30;;;;;;;;;;;;;;;29.37;39.72;99004.94;5446680;26;19971;-49
2024/04/13 08:04:55;;;;;;;;;;;;;;;30.02;39.56;99005.19;5445551;26;19990;-49
2024/04/13 08:07:20;;;;;;;;;;;;;;;31.11;37.46;99004.22;5440851;26;20043;-48
2024/04/13 08:09:45;;;;;;;;;;;;;;;30.90;39.03;99007.69;5446930;26;20054;-48
2024/04/13 08:12:10;;;;;;;;;;;;;;;31.73;36.92;99001.53;5443622;26;20049;-48
2024/04/13 08:14:36;;;;;;;;;;;;;;;32.06;36.95;99001.81;5449464;26;19994;-50
2024/04/13 08:17:02;;;;;;;;;;;;;;;32.72;35.71;98990.34;5450480;26;19959;-50
2024/04/13 08:19:27;;;;;;;;;;;;;;;33.20;35.19;98987.41;5447968;26;20519;-49
2024/04/13 08:21:52;;;;;;;;;;;;;;;32.73;36.20;98979.34;5446792;26;20289;-49
2024/04/13 08:24:18;;;;;;;;;;;;;;;34.23;35.22;98985.78;5440566;26;20306;-48
2024/04/13 08:26:43;;;;;;;;;;;;;;;33.73;34.93;98983.72;5446357;26;20381;-48
2024/04/13 08:29:08;;;;;;;;;;;;;;;33.30;35.32;98977.06;5444168;26;19959;-49
2024/04/13 08:31:33;;;;;;;;;;;;;;;33.91;34.74;98970.44;5446635;26;19937;-49
2024/04/13 08:33:59;;;;;;;;;;;;;;;35.76;34.14;98969.19;5453663;26;19985;-49
2024/04/13 08:36:24;;;;;;;;;;;;;;;33.83;33.94;98965.25;5444447;26;19970;-51
2024/04/13 08:38:49;;;;;;;;;;;;;;;34.23;33.78;98964.16;5451019;26;19989;-49
2024/04/13 08:41:20;;;;;;;;;;;;;;;33.86;34.54;98956.72;5440253;26;20280;-49
2024/04/13 08:43:46;;;;;;;;;;;;;;;34.39;34.31;98954.78;5444450;26;19929;-49
2024/04/13 08:46:11;;;;;;;;;;;;;;;34.96;34.26;98955.56;5451187;26;19982;-50
2024/04/13 08:48:40;;;;;;;;;;;;;;;35.07;33.46;98952.13;5449109;26;19959;-49
2024/04/13 08:51:09;;;;;;;;;;;;;;;35.55;32.06;98947.03;5447839;26;19932;-50
2024/04/13 08:53:35;;;;;;;;;;;;;;;35.05;33.29;98948.81;5450736;26;19937;-50
2024/04/13 08:56:01;;;;;;;;;;;;;;;36.23;32.63;98949.53;5454222;26;19996;-50
2024/04/13 08:58:27;;;;;;;;;;;;;;;34.03;33.48;98930.91;5445282;26;19936;-48
2024/04/13 09:00:59;;;;;;;;;;;;;;;29.48;39.15;98928.53;5448361;26;19963;-48
2024/04/13 09:03:26;;;;;;;;;;;;;;;28.23;42.23;98931.66;5436177;26;19929;-59
2024/04/13 09:05:52;;;;;;;;;;;;;;;27.48;43.18;98926.84;5448921;26;19959;-57
2024/04/13 09:08:18;;;;;;;;;;;;;;;28.15;42.76;98912.97;5448306;26;20213;-49
2024/04/13 09:10:45;;;;;;;;;;;;;;;28.08;43.62;98917.34;5440653;26;19988;-56
2024/04/13 09:13:10;;;;;;;;;;;;;;;27.50;43.99;98917.66;5439148;26;19977;-52
2024/04/13 09:15:36;;;;;;;;;;;;;;;27.68;44.06;98909.41;5444424;26;19985;-63
2024/04/13 09:18:01;;;;;;;;;;;;;;;28.19;43.32;98914.28;5444691;26;19995;-53
2024/04/13 09:20:29;;;;;;;;;;;;;;;27.20;44.37;98915.66;5447140;26;19979;-53
2024/04/13 09:22:54;;;;;;;;;;;;;;;27.22;44.99;98910.16;5434274;26;19953;-52
2024/04/13 09:25:22;;;;;;;;;;;;;;;27.37;44.51;98906.63;5441496;26;19984;-52
2024/04/13 09:27:58;;;;;;;;;;;;;;;28.12;43.71;98903.44;5479081;26;19978;-52
2024/04/13 09:30:23;;;;;;;;;;;;;;;27.96;43.96;98897.31;5440991;26;19933;-52
2024/04/13 09:32:50;;;;;;;;;;;;;;;28.35;42.48;98898.97;5448625;26;19975;-51
2024/04/13 09:35:17;;;;;;;;;;;;;;;28.44;42.21;98895.28;5446687;26;19959;-51
2024/04/13 09:37:43;;;;;;;;;;;;;;;28.11;43.42;98891.06;5444947;26;20010;-52
2024/04/13 09:40:10;;;;;;;;;;;;;;;27.67;43.88;98889.00;5438073;26;19962;-50
2024/04/13 09:42:35;;;;;;;;;;;;;;;27.31;44.28;98885.09;5441141;26;19943;-52
2024/04/13 09:45:05;;;;;;;;;;;;;;;27.54;43.18;98880.69;5440306;26;19964;-53
2024/04/13 09:47:31;;;;;;;;;;;;;;;28.66;42.72;98885.59;5446126;26;19941;-53
2024/04/13 09:49:56;;;;;;;;;;;;;;;28.97;41.71;98875.66;5443436;26;20043;-51
2024/04/13 09:52:23;;;;;;;;;;;;;;;29.58;41.41;98878.13;5439922;26;19964;-53
2024/04/13 09:54:48;;;;;;;;;;;;;;;29.05;40.58;98875.59;5448528;26;19986;-54
2024/04/13 09:57:14;;;;;;;;;;;;;;;27.47;42.54;98863.66;5446619;26;19974;-52
2024/04/13 09:59:41;;;;;;;;;;;;;;;27.74;42.60;98860.56;5447961;26;20051;-54
2024/04/13 10:02:07;;;;;;;;;;;;;;;28.10;42.63;98859.09;5448017;26;20003;-52
2024/04/13 10:04:33;;;;;;;;;;;;;;;29.01;41.21;98858.19;5446418;26;19929;-52
2024/04/13 10:06:59;;;;;;;;;;;;;;;29.57;40.43;98850.44;5446127;26;20404;-52
2024/04/13 10:09:24;;;;;;;;;;;;;;;30.58;39.62;98856.72;5440277;26;19940;-52
2024/04/13 10:11:51;;;;;;;;;;;;;;;28.62;40.63;98842.22;5441849;26;19962;-51
2024/04/13 10:14:18;;;;;;;;;;;;;;;28.86;40.67;98855.44;5447614;26;19936;-51
2024/04/13 10:16:44;;;;;;;;;;;;;;;28.55;40.41;98840.44;5440590;26;19936;-51
2024/04/13 10:19:10;;;;;;;;;;;;;;;28.95;40.25;98838.31;5447745;26;19928;-54
2024/04/13 10:21:35;;;;;;;;;;;;;;;30.14;40.04;98843.41;5434500;26;19993;-53
2024/04/13 10:24:00;;;;;;;;;;;;;;;29.12;38.96;98839.00;5440706;26;19935;-53
2024/04/13 10:26:26;;;;;;;;;;;;;;;29.97;38.88;98836.53;5433194;26;20370;-52
2024/04/13 10:29:01;;;;;;;;;;;;;;;29.51;38.83;98831.56;5441552;26;20528;-52
2024/04/13 10:31:33;;;;;;;;;;;;;;;28.17;37.56;98825.22;5442328;26;19965;-50
2024/04/13 10:33:58;;;;;;;;;;;;;;;29.29;37.26;98825.22;5447712;26;19928;-50
2024/04/13 10:36:30;;;;;;;;;;;;;;;29.62;36.92;98823.03;5438234;26;19935;-52
2024/04/13 10:38:57;;;;;;;;;;;;;;;29.25;37.65;98815.06;5438068;26;19989;-52
2024/04/13 10:41:32;;;;;;;;;;;;;;;30.32;38.00;98819.63;5443898;26;19936;-53
2024/04/13 10:43:58;;;;;;;;;;;;;;;30.15;37.97;98806.59;5444568;26;19981;-51
2024/04/13 10:46:24;;;;;;;;;;;;;;;30.53;38.16;98818.81;5427291;26;19928;-51
2024/04/13 10:48:49;;;;;;;;;;;;;;;31.37;37.36;98810.69;5436569;26;19936;-53
2024/04/13 10:51:15;;;;;;;;;;;;;;;31.45;36.71;98797.06;5438196;26;20007;-50
2024/04/13 10:53:41;;;;;;;;;;;;;;;31.32;36.34;98808.56;5438214;26;20323;-50
2024/04/13 10:56:06;;;;;;;;;;;;;;;32.56;36.17;98807.28;5438250;26;20356;-53
2024/04/13 10:58:32;;;;;;;;;;;;;;;32.31;35.34;98801.66;5433822;26;19972;-53
2024/04/13 11:00:57;;;;;;;;;;;;;;;31.16;36.15;98792.69;5435483;26;20335;-51
2024/04/13 11:03:27;;;;;;;;;;;;;;;30.96;37.04;98791.72;5439950;26;19929;-53
2024/04/13 11:05:53;;;;;;;;;;;;;;;30.40;37.13;98789.13;5434800;26;19928;-51
2024/04/13 11:08:19;;;;;;;;;;;;;;;30.16;36.86;98787.63;5435636;26;19943;-51
2024/04/13 11:10:45;;;;;;;;;;;;;;;31.10;37.11;98774.66;5441647;26;20391;-50
2024/04/13 11:13:10;;;;;;;;;;;;;;;32.10;36.52;98790.16;5434367;26;19970;-50
2024/04/13 11:15:36;;;;;;;;;;;;;;;32.98;35.42;98791.59;5434197;26;20396;-50
2024/04/13 11:18:02;;;;;;;;;;;;;;;32.30;35.06;98789.22;5430013;26;19986;-52
2024/04/13 11:20:28;;;;;;;;;;;;;;;31.90;36.32;98786.53;5430026;26;19939;-51
2024/04/13 11:22:54;;;;;;;;;;;;;;;31.29;37.28;98786.59;5430084;26;20357;-50
2024/04/13 11:25:19;;;;;;;;;;;;;;;31.66;35.95;98779.78;5433462;26;19940;-50
2024/04/13 11:27:45;;;;;;;;;;;;;;;32.51;36.04;98778.25;5437392;26;20010;-50
2024/04/13 11:30:11;;;;;;;;;;;;;;;30.50;37.24;98763.56;5433066;26;19999;-50
2024/04/13 11:32:36;;;;;;;;;;;;;;;32.23;36.04;98760.56;5436895;26;20371;-50
2024/04/13 11:35:01;;;;;;;;;;;;;;;32.29;35.87;98760.59;5434658;26;19981;-51
2024/04/13 11:37:26;;;;;;;;;;;;;;;32.66;35.14;98762.69;5432845;26;19967;-52
2024/04/13 11:39:52;;;;;;;;;;;;;;;32.64;35.39;98758.53;5426927;26;19985;-52
2024/04/13 11:42:17;;;;;;;;;;;;;;;31.98;36.50;98754.88;5435845;26;19928;-52
2024/04/13 11:44:43;;;;;;;;;;;;;;;31.03;37.38;98740.66;5439468;26;20241;-50
2024/04/13 11:47:11;;;;;;;;;;;;;;;31.07;35.50;98737.38;5438779;26;19991;-51
2024/04/13 11:49:39;;;;;;;;;;;;;;;30.71;35.80;98734.00;5443228;26;19963;-52
2024/04/13 11:52:05;;;;;;;;;;;;;;;32.11;36.15;98735.19;5438023;26;20367;-50
2024/04/13 11:54:31;;;;;;;;;;;;;;;31.57;36.42;98725.47;5439251;26;20042;-51
2024/04/13 11:56:56;;;;;;;;;;;;;;;32.14;35.90;98727.53;5433814;26;19993;-51
2024/04/13 11:59:22;;;;;;;;;;;;;;;31.99;35.07;98721.50;5438538;26;19971;-50
2024/04/13 12:01:48;;;;;;;;;;;;;;;32.45;34.74;98722.44;5436017;26;20044;-51
2024/04/13 12:04:14;;;;;;;;;;;;;;;31.23;35.49;98709.34;5436795;26;19928;-50
2024/04/13 12:06:40;;;;;;;;;;;;;;;31.61;35.80;98709.53;5440779;26;20002;-51
2024/04/13 12:09:05;;;;;;;;;;;;;;;31.21;36.12;98696.09;5436142;26;19945;-50
2024/04/13 12:11:30;;;;;;;;;;;;;;;32.21;35.13;98701.44;5444193;26;20001;-50
2024/04/13 12:13:59;;;;;;;;;;;;;;;31.39;36.22;98691.00;5433419;26;20364;-50
2024/04/13 12:16:25;;;;;;;;;;;;;;;31.96;35.48;98697.66;5436330;26;20078;-50
2024/04/13 12:18:51;;;;;;;;;;;;;;;31.26;36.00;98690.13;5437605;26;19982;-50
2024/04/13 12:21:16;;;;;;;;;;;;;;;31.94;36.13;98697.03;5436041;26;19929;-50
2024/04/13 12:23:42;;;;;;;;;;;;;;;32.16;35.38;98695.00;5433891;26;19962;-50
2024/04/13 12:26:07;;;;;;;;;;;;;;;32.38;35.30;98691.94;5436942;26;19929;-52
2024/04/13 12:28:34;;;;;;;;;;;;;;;31.75;34.79;98687.03;5432006;26;19959;-51
2024/04/13 12:30:59;;;;;;;;;;;;;;;32.79;35.35;98689.06;5434139;26;19996;-51
2024/04/13 12:33:25;;;;;;;;;;;;;;;32.12;35.52;98673.03;5433869;26;20328;-51
2024/04/13 12:35:53;;;;;;;;;;;;;;;31.16;35.72;98668.06;5436805;26;19940;-52
2024/04/13 12:38:19;;;;;;;;;;;;;;;32.02;36.09;98667.22;5430771;26;19973;-52